Current Weather

Chicago O'Hare International

Chicago, Illinois (KORD)

Report from: Monday, August 15, 2022 6:51 PM CDT
Current time: Monday, August 15, 2022 7:44 PM CDT

Nearby weather
Weather history
Weather forecast

Temperature22.2°C (72.0°F)
Dew point13.9°C (57.0°F)
Winds 7 kts (3.6 m/s, 8.1 mph) North-Northeast (20°)
Visibility10 mi. (16.1 km)
Clouds Scattered clouds 10,000 ft. (3,048 m)
Ceiling: Broken clouds 25,000 ft. (7,620 m)
Altimeter30.06 in.Hg (1018 mB)
Relative humidity59 %
Density altitude902 ft. (275 m)
Sea-level pressure101.8 kPa (1018 mB, 30.05 in.Hg)
Max temp last 6 hours26.1°C (79.0°F)
Min temp last 6 hours22.2°C (72.0°F)
Remarks Automated weather observing station with precipitation discriminator
Pressure rising more slowly
Flight conditions Visual Meteorological Conditions
Raw dataKORD 152351Z 02007KT 10SM SCT100 BKN250 22/14 A3006 RMK AO2 SLP177 T02220139 10261 20222 51004
An error has occurred. This application may no longer respond until reloaded. Reload 🗙